Time;durP1;ratioP1;P1;durP2;ratioP2;P2;SDS_P1;SDS_P2;PMS_P1;PMS_P2;Temp;Humidity;BMP_temperature;BMP_pressure;BME280_temperature;BME280_humidity;BME280_pressure;Samples;Min_cycle;Max_cycle;Signal;HPM_P1;HPM_P2
2023/02/25 00:02:12;;;;;;;1.60;1.60;;;;;;;1.28;100.00;95444.75;5004831;28;20234;-68
2023/02/25 00:04:40;;;;;;;1.80;1.80;;;;;;;1.37;100.00;95447.31;5060562;28;20252;-70
2023/02/25 00:07:10;;;;;;;2.43;2.33;;;;;;;1.32;100.00;95455.63;5048722;28;20290;-69
2023/02/25 00:09:37;;;;;;;2.40;2.20;;;;;;;1.37;100.00;95471.63;5060121;28;20237;-70
2023/02/25 00:12:05;;;;;;;2.43;2.33;;;;;;;1.40;100.00;95478.28;5065734;28;20575;-68
2023/02/25 00:14:33;;;;;;;2.37;2.27;;;;;;;1.43;100.00;95476.16;5066209;28;21004;-70
2023/02/25 00:17:01;;;;;;;3.10;2.90;;;;;;;1.46;100.00;95488.06;5019751;28;20206;-68
2023/02/25 00:19:28;;;;;;;2.70;2.60;;;;;;;1.48;100.00;95487.91;5062720;28;20310;-68
2023/02/25 00:21:56;;;;;;;2.90;2.70;;;;;;;1.44;100.00;95482.19;5065770;28;20202;-69
2023/02/25 00:24:25;;;;;;;2.63;2.53;;;;;;;1.43;100.00;95498.81;5040719;28;20324;-71
2023/02/25 00:26:52;;;;;;;3.20;3.00;;;;;;;1.39;100.00;95492.31;5064130;28;20296;-70
2023/02/25 00:29:21;;;;;;;3.57;3.27;;;;;;;1.37;100.00;95489.91;5060266;28;20326;-69
2023/02/25 00:31:48;;;;;;;7.00;6.27;;;;;;;1.39;100.00;95493.16;5058343;28;20587;-70
2023/02/25 00:34:16;;;;;;;3.07;2.93;;;;;;;1.37;100.00;95483.84;5015916;28;20753;-69
2023/02/25 00:36:44;;;;;;;3.63;3.47;;;;;;;1.39;100.00;95494.94;5061407;28;20309;-70
2023/02/25 00:39:12;;;;;;;3.70;3.40;;;;;;;1.38;100.00;95495.91;5046662;28;20218;-68
2023/02/25 00:41:41;;;;;;;4.00;3.70;;;;;;;1.35;100.00;95496.25;5062860;28;20990;-71
2023/02/25 00:44:09;;;;;;;3.37;3.17;;;;;;;1.32;100.00;95494.78;5060816;28;20692;-67
2023/02/25 00:46:36;;;;;;;3.70;3.50;;;;;;;1.30;100.00;95492.34;5060646;28;20574;-68
2023/02/25 00:49:04;;;;;;;4.00;3.73;;;;;;;1.35;100.00;95499.69;4993149;28;20334;-70
2023/02/25 00:51:33;;;;;;;4.37;4.07;;;;;;;1.40;100.00;95507.81;5062260;28;20237;-69
2023/02/25 00:54:01;;;;;;;4.30;4.00;;;;;;;1.38;100.00;95494.13;5063863;28;20218;-69
2023/02/25 00:56:28;;;;;;;4.63;4.20;;;;;;;1.40;100.00;95494.78;5040326;28;20240;-69
2023/02/25 00:58:59;;;;;;;5.03;4.63;;;;;;;1.46;100.00;95490.66;5058888;28;20198;-69
2023/02/25 01:01:29;;;;;;;4.30;4.00;;;;;;;1.48;100.00;95477.47;5063250;28;20211;-70
2023/02/25 01:03:57;;;;;;;4.83;4.53;;;;;;;1.51;100.00;95477.13;5013695;28;21091;-69
2023/02/25 01:06:26;;;;;;;5.00;4.50;;;;;;;1.52;100.00;95474.34;5059711;28;20205;-70
2023/02/25 01:08:54;;;;;;;4.70;4.30;;;;;;;1.51;100.00;95477.13;5063985;28;20194;-67
2023/02/25 01:11:27;;;;;;;5.87;5.37;;;;;;;1.37;100.00;95473.41;5041198;28;20204;-69
2023/02/25 01:13:58;;;;;;;4.83;4.47;;;;;;;1.44;100.00;95490.00;5059123;28;20438;-69
2023/02/25 01:16:28;;;;;;;5.17;4.77;;;;;;;1.47;100.00;95483.66;5060519;28;20355;-71
2023/02/25 01:18:57;;;;;;;5.10;4.70;;;;;;;1.50;100.00;95489.34;5016240;28;21119;-68
2023/02/25 01:21:28;;;;;;;5.80;5.30;;;;;;;1.49;100.00;95486.91;5065146;28;20214;-71
2023/02/25 01:23:58;;;;;;;5.07;4.67;;;;;;;1.51;100.00;95487.56;5062975;28;20433;-69
2023/02/25 01:26:26;;;;;;;5.60;5.20;;;;;;;1.55;100.00;95507.13;5046860;28;20202;-70
2023/02/25 01:28:54;;;;;;;6.13;5.40;;;;;;;1.54;100.00;95508.94;5062979;28;20225;-69
2023/02/25 01:31:27;;;;;;;4.50;4.20;;;;;;;1.57;100.00;95502.53;5062616;28;20198;-69
2023/02/25 01:33:57;;;;;;;4.73;4.33;;;;;;;1.55;100.00;95500.13;5023155;28;20783;-68
2023/02/25 01:36:25;;;;;;;5.17;4.77;;;;;;;1.55;100.00;95484.44;5065397;28;20554;-70
2023/02/25 01:38:52;;;;;;;4.80;4.30;;;;;;;1.56;100.00;95495.69;5064825;28;20198;-68
2023/02/25 01:41:20;;;;;;;4.17;3.87;;;;;;;1.51;100.00;95506.63;5046535;28;20662;-70
2023/02/25 01:44:03;;;;;;;4.80;4.50;;;;;;;1.50;100.00;95518.06;5064804;28;20242;-69
2023/02/25 01:46:32;;;;;;;4.47;4.17;;;;;;;1.39;100.00;95508.81;5062302;28;20665;-70
2023/02/25 01:49:00;;;;;;;4.50;4.20;;;;;;;1.23;100.00;95514.06;5067116;28;20198;-71
2023/02/25 01:51:28;;;;;;;4.93;4.53;;;;;;;1.03;100.00;95500.56;5022036;28;20465;-71
2023/02/25 01:53:57;;;;;;;4.37;4.07;;;;;;;0.88;100.00;95513.44;5064930;28;20249;-70
2023/02/25 01:56:26;;;;;;;4.47;4.13;;;;;;;0.74;100.00;95512.31;5063013;28;20794;-69
2023/02/25 01:58:54;;;;;;;4.10;3.80;;;;;;;0.64;100.00;95507.28;5044630;28;20198;-68
2023/02/25 02:01:23;;;;;;;3.97;3.67;;;;;;;0.59;100.00;95514.78;5061001;28;20228;-68
2023/02/25 02:03:52;;;;;;;3.23;3.03;;;;;;;0.45;100.00;95519.66;5066417;28;20562;-69
2023/02/25 02:06:22;;;;;;;3.13;2.93;;;;;;;0.39;100.00;95512.47;5022135;28;20698;-71
2023/02/25 02:08:50;;;;;;;3.70;3.40;;;;;;;0.32;100.00;95514.09;5064423;28;20252;-69
2023/02/25 02:11:18;;;;;;;3.40;3.20;;;;;;;0.26;100.00;95511.16;5064223;28;20205;-71
2023/02/25 02:13:48;;;;;;;3.43;3.13;;;;;;;0.19;100.00;95517.16;5042171;28;20219;-69
2023/02/25 02:16:26;;;;;;;4.73;3.20;;;;;;;0.18;100.00;95524.16;5068479;28;20194;-69
2023/02/25 02:18:58;;;;;;;3.60;3.30;;;;;;;0.20;100.00;95530.03;5059191;28;20433;-69
2023/02/25 02:21:50;;;;;;;3.10;2.90;;;;;;;0.12;100.00;95540.44;5013252;28;20223;-70
2023/02/25 02:24:37;;;;;;;3.20;3.00;;;;;;;-0.02;100.00;95539.25;5055459;28;20447;-71
2023/02/25 02:27:07;;;;;;;3.87;3.53;;;;;;;-0.06;100.00;95528.34;5043409;28;21482;-70
2023/02/25 02:30:12;;;;;;;3.63;3.40;;;;;;;-0.05;100.00;95529.16;5064896;28;20489;-68
2023/02/25 02:32:46;;;;;;;3.70;3.40;;;;;;;-0.11;100.00;95530.63;5059848;28;20272;-70
2023/02/25 02:35:20;;;;;;;4.13;3.83;;;;;;;-0.09;100.00;95535.66;5061259;28;20552;-69
2023/02/25 02:37:56;;;;;;;4.03;3.73;;;;;;;-0.05;100.00;95529.16;5017545;28;20215;-70
2023/02/25 02:40:32;;;;;;;4.10;3.80;;;;;;;0.05;100.00;95544.66;5062249;28;20523;-69
2023/02/25 02:43:11;;;;;;;12.73;3.93;;;;;;;0.14;100.00;95548.91;5045119;28;20202;-71
2023/02/25 02:45:42;;;;;;;4.07;3.70;;;;;;;0.19;100.00;95549.25;5059704;28;20236;-69
2023/02/25 02:48:14;;;;;;;3.63;3.43;;;;;;;0.22;100.00;95537.69;5065270;28;20198;-68
2023/02/25 02:50:44;;;;;;;4.23;3.83;;;;;;;0.24;100.00;95546.97;5064762;28;20190;-70
2023/02/25 02:53:14;;;;;;;3.90;3.60;;;;;;;0.27;100.00;95544.06;5021016;28;20585;-68
2023/02/25 02:55:45;;;;;;;4.67;4.27;;;;;;;0.36;100.00;95549.28;5061862;28;20676;-68
2023/02/25 02:58:16;;;;;;;3.70;3.40;;;;;;;0.32;100.00;95534.94;5047255;28;20553;-68
2023/02/25 03:00:47;;;;;;;5.33;3.23;;;;;;;0.39;100.00;95541.97;5062219;28;20226;-70
2023/02/25 03:03:19;;;;;;;5.53;3.50;;;;;;;0.39;100.00;95539.38;5064684;28;20230;-68
2023/02/25 03:05:49;;;;;;;4.37;4.07;;;;;;;0.42;100.00;95544.25;5065147;28;20191;-70
2023/02/25 03:08:19;;;;;;;4.90;4.50;;;;;;;0.46;100.00;95549.94;5010611;28;20348;-70
2023/02/25 03:10:47;;;;;;;6.23;4.93;;;;;;;0.47;100.00;95538.53;5056542;28;20195;-70
2023/02/25 03:13:15;;;;;;;4.87;4.47;;;;;;;0.39;100.00;95541.97;5041982;28;20245;-69
2023/02/25 03:15:44;;;;;;;5.47;4.93;;;;;;;0.38;100.00;95544.72;5063844;28;20194;-68
2023/02/25 03:18:18;;;;;;;5.03;4.63;;;;;;;0.38;100.00;95549.94;5061090;28;20207;-68
2023/02/25 03:20:49;;;;;;;4.97;4.47;;;;;;;0.45;100.00;95548.31;5054503;28;20218;-69
2023/02/25 03:23:18;;;;;;;5.37;3.87;;;;;;;0.37;100.00;95545.69;5009685;28;20722;-69
2023/02/25 03:25:49;;;;;;;5.03;4.47;;;;;;;0.37;100.00;95546.50;5064848;28;20214;-69
2023/02/25 03:28:26;;;;;;;4.53;4.10;;;;;;;0.36;100.00;95551.88;5043852;28;20209;-70
2023/02/25 03:30:59;;;;;;;4.03;3.73;;;;;;;0.43;100.00;95537.22;5061565;28;20371;-71
2023/02/25 03:33:32;;;;;;;4.37;3.10;;;;;;;0.32;100.00;95546.16;5063843;28;20279;-68
2023/02/25 03:36:01;;;;;;;6.10;3.60;;;;;;;0.41;100.00;95544.41;5058831;28;20591;-69
2023/02/25 03:38:31;;;;;;;4.07;3.27;;;;;;;0.46;100.00;95538.72;5045958;28;20210;-68
2023/02/25 03:41:01;;;;;;;4.13;3.83;;;;;;;0.33;100.00;95553.00;5036596;28;20210;-70
2023/02/25 03:43:31;;;;;;;2.80;2.60;;;;;;;0.26;100.00;95539.81;5040329;28;20305;-68
2023/02/25 03:45:59;;;;;;;3.57;3.03;;;;;;;0.24;100.00;95554.81;5063773;28;20397;-70
2023/02/25 03:48:28;;;;;;;2.97;2.70;;;;;;;0.28;100.00;95553.50;5053723;28;20199;-67
2023/02/25 03:51:00;;;;;;;3.33;3.03;;;;;;;0.21;100.00;95549.91;5055838;28;20227;-70
2023/02/25 03:53:28;;;;;;;3.33;2.83;;;;;;;0.20;100.00;95556.09;5057762;28;20237;-68
2023/02/25 03:55:57;;;;;;;5.07;3.13;;;;;;;0.09;100.00;95549.38;5016855;28;20414;-69
2023/02/25 03:58:24;;;;;;;3.43;2.60;;;;;;;0.18;100.00;95567.63;5061570;28;20194;-70
2023/02/25 04:00:54;;;;;;;3.67;2.83;;;;;;;0.14;100.00;95559.31;5037847;28;20475;-69
2023/02/25 04:03:22;;;;;;;3.93;2.87;;;;;;;0.12;100.00;95571.69;5063849;28;20713;-70
2023/02/25 04:05:50;;;;;;;4.27;2.90;;;;;;;0.02;100.00;95581.41;5061073;28;20210;-69
2023/02/25 04:08:19;;;;;;;3.73;2.80;;;;;;;-0.01;100.00;95592.94;5060715;28;20194;-70
2023/02/25 04:10:47;;;;;;;3.10;2.90;;;;;;;-0.08;100.00;95584.97;5014808;28;20703;-69
2023/02/25 04:13:19;;;;;;;5.80;3.03;;;;;;;-0.12;100.00;95590.63;5046512;28;20228;-68
2023/02/25 04:15:47;;;;;;;3.20;3.00;;;;;;;0.00;100.00;95594.63;5037214;28;20680;-70
2023/02/25 04:18:15;;;;;;;3.67;2.87;;;;;;;-0.06;100.00;95595.22;5056263;28;20203;-68
2023/02/25 04:20:42;;;;;;;4.83;4.07;;;;;;;-0.09;100.00;95595.53;5057994;28;20695;-70
2023/02/25 04:23:13;;;;;;;4.43;3.37;;;;;;;-0.16;100.00;95598.75;5060759;28;20395;-68
2023/02/25 04:25:43;;;;;;;3.60;3.30;;;;;;;-0.13;100.00;95609.84;5060254;28;20426;-70
2023/02/25 04:28:10;;;;;;;3.13;2.93;;;;;;;-0.05;100.00;95605.50;5013607;28;20686;-70
2023/02/25 04:30:38;;;;;;;3.60;3.30;;;;;;;0.01;100.00;95595.41;5035038;28;20207;-68
2023/02/25 04:33:06;;;;;;;5.07;3.03;;;;;;;0.09;100.00;95591.06;5062520;28;20224;-69
2023/02/25 04:35:34;;;;;;;4.60;3.03;;;;;;;0.12;100.00;95593.34;5056488;28;20450;-68
2023/02/25 04:38:01;;;;;;;4.43;3.03;;;;;;;0.12;100.00;95592.50;5060198;28;20308;-68
2023/02/25 04:40:29;;;;;;;3.93;3.63;;;;;;;0.05;100.00;95597.56;5060252;28;20202;-68
2023/02/25 04:42:58;;;;;;;5.23;3.37;;;;;;;-0.07;100.00;95599.63;5008252;28;20203;-69
2023/02/25 04:45:26;;;;;;;3.73;3.07;;;;;;;-0.12;100.00;95596.69;5040312;28;20203;-69
2023/02/25 04:47:54;;;;;;;3.47;2.97;;;;;;;-0.15;100.00;95597.00;5060144;28;20307;-70
2023/02/25 04:50:22;;;;;;;5.67;3.47;;;;;;;-0.02;100.00;95602.56;5059328;28;20495;-70
2023/02/25 04:52:49;;;;;;;4.93;3.87;;;;;;;-0.03;100.00;95597.50;5059670;28;20471;-69
2023/02/25 04:55:18;;;;;;;4.90;3.83;;;;;;;-0.05;100.00;95592.47;5063326;28;20241;-70
2023/02/25 04:57:46;;;;;;;3.73;3.43;;;;;;;-0.14;100.00;95598.63;5011454;28;20427;-68
2023/02/25 05:00:19;;;;;;;4.30;3.13;;;;;;;-0.30;100.00;95594.94;5059754;28;20210;-70
2023/02/25 05:02:47;;;;;;;4.07;3.40;;;;;;;-0.33;100.00;95610.88;5035507;28;20693;-70
2023/02/25 05:05:15;;;;;;;4.43;3.43;;;;;;;-0.27;100.00;95609.47;5066511;28;20226;-70
2023/02/25 05:07:43;;;;;;;5.23;3.27;;;;;;;-0.33;100.00;95613.47;5057928;28;20333;-69
2023/02/25 05:10:13;;;;;;;5.97;4.30;;;;;;;-0.04;100.00;95609.72;5066198;28;20221;-71
2023/02/25 05:12:41;;;;;;;6.30;3.50;;;;;;;0.01;100.00;95603.22;5021422;28;20280;-69
2023/02/25 05:15:10;;;;;;;4.47;3.70;;;;;;;0.12;100.00;95605.53;5057936;28;20341;-71
2023/02/25 05:17:39;;;;;;;4.63;4.23;;;;;;;0.17;100.00;95621.50;5033034;28;20412;-68
2023/02/25 05:20:11;;;;;;;3.43;3.00;;;;;;;0.17;100.00;95611.09;5066527;28;20611;-70
2023/02/25 05:22:39;;;;;;;5.37;3.33;;;;;;;0.24;100.00;95611.28;5055573;28;20206;-68
2023/02/25 05:25:09;;;;;;;4.47;3.37;;;;;;;0.27;100.00;95605.75;5063223;28;20218;-71
2023/02/25 05:27:37;;;;;;;7.97;4.57;;;;;;;0.32;100.00;95615.72;5033932;28;20290;-69
2023/02/25 05:30:05;;;;;;;6.80;3.93;;;;;;;0.32;100.00;95613.09;5045186;28;20203;-70
2023/02/25 05:32:33;;;;;;;4.80;4.40;;;;;;;0.32;100.00;95602.69;5037397;28;20709;-69
2023/02/25 05:35:02;;;;;;;3.97;3.67;;;;;;;0.41;100.00;95612.97;5062115;28;20448;-72
2023/02/25 05:37:31;;;;;;;4.80;4.40;;;;;;;0.40;100.00;95608.75;5057132;28;20705;-69
2023/02/25 05:39:59;;;;;;;4.10;3.80;;;;;;;0.39;100.00;95609.72;5058143;28;20293;-70
2023/02/25 05:42:27;;;;;;;7.57;3.53;;;;;;;0.38;100.00;95605.47;5062782;28;20199;-69
2023/02/25 05:44:55;;;;;;;4.77;3.83;;;;;;;0.47;100.00;95610.69;5007932;28;20223;-71
2023/02/25 05:47:22;;;;;;;4.37;3.60;;;;;;;0.47;100.00;95610.69;5064227;28;20333;-71
2023/02/25 05:49:50;;;;;;;5.40;3.87;;;;;;;0.50;100.00;95615.59;5041688;28;21417;-71
2023/02/25 05:52:19;;;;;;;6.13;4.57;;;;;;;0.48;100.00;95620.16;5058754;28;20248;-70
2023/02/25 05:54:47;;;;;;;5.30;4.83;;;;;;;0.52;100.00;95624.88;5060361;28;20276;-70
2023/02/25 05:57:15;;;;;;;4.13;3.70;;;;;;;0.52;100.00;95622.25;5067058;28;20267;-72
2023/02/25 05:59:42;;;;;;;9.77;4.10;;;;;;;0.57;100.00;95620.03;5019850;28;20241;-70
2023/02/25 06:02:10;;;;;;;5.77;4.13;;;;;;;0.61;100.00;95630.13;5060804;28;20804;-70
2023/02/25 06:04:38;;;;;;;3.93;3.63;;;;;;;0.56;100.00;95617.56;5040493;28;20238;-69
2023/02/25 06:07:05;;;;;;;4.93;4.43;;;;;;;0.62;100.00;95631.75;5061479;28;20190;-72
2023/02/25 06:09:35;;;;;;;4.40;4.00;;;;;;;0.63;100.00;95630.78;5060303;28;20195;-69
2023/02/25 06:12:02;;;;;;;7.70;4.00;;;;;;;0.62;100.00;95621.31;5063468;28;20191;-69
2023/02/25 06:14:30;;;;;;;4.40;4.00;;;;;;;0.66;100.00;95633.06;5049904;28;20314;-70
2023/02/25 06:16:58;;;;;;;5.37;4.40;;;;;;;0.65;100.00;95637.44;5040086;28;20728;-71
2023/02/25 06:19:26;;;;;;;4.00;3.70;;;;;;;0.63;100.00;95622.97;5058361;28;20207;-70
2023/02/25 06:21:54;;;;;;;3.97;3.50;;;;;;;0.71;100.00;95641.22;5046571;28;20195;-71
2023/02/25 06:24:23;;;;;;;5.53;3.37;;;;;;;0.70;100.00;95645.59;5069281;28;20234;-70
2023/02/25 06:26:52;;;;;;;4.43;3.63;;;;;;;0.69;100.00;95643.16;5061485;28;20296;-71
2023/02/25 06:29:19;;;;;;;4.27;3.87;;;;;;;0.72;100.00;95645.44;5066327;28;20224;-70
2023/02/25 06:31:47;;;;;;;7.60;3.57;;;;;;;0.73;100.00;95644.47;5018614;28;20202;-69
2023/02/25 06:34:15;;;;;;;5.80;3.90;;;;;;;0.74;100.00;95656.53;5067982;28;20237;-70
2023/02/25 06:36:42;;;;;;;4.37;3.20;;;;;;;0.71;100.00;95655.06;5041942;28;20210;-69
2023/02/25 06:39:10;;;;;;;6.63;4.17;;;;;;;0.71;100.00;95662.06;5069813;28;20218;-69
2023/02/25 06:41:38;;;;;;;4.20;3.50;;;;;;;0.75;100.00;95668.59;5063263;28;20202;-69
2023/02/25 06:44:07;;;;;;;5.60;4.37;;;;;;;0.76;100.00;95670.22;5067226;28;20211;-70
2023/02/25 06:46:34;;;;;;;5.67;3.23;;;;;;;0.76;100.00;95672.84;5017212;28;20210;-70
2023/02/25 06:49:02;;;;;;;3.90;3.27;;;;;;;0.78;100.00;95680.50;5060998;28;20598;-71
2023/02/25 06:51:29;;;;;;;4.83;3.53;;;;;;;0.78;100.00;95681.31;5043104;28;20207;-71
2023/02/25 06:53:57;;;;;;;4.60;3.10;;;;;;;0.80;100.00;95678.56;5058554;28;20300;-71
2023/02/25 06:56:25;;;;;;;4.63;3.40;;;;;;;0.80;100.00;95676.75;5062928;28;20463;-71
2023/02/25 06:58:53;;;;;;;6.77;4.07;;;;;;;0.82;100.00;95674.00;5062736;28;20370;-68
2023/02/25 07:01:22;;;;;;;4.13;3.70;;;;;;;0.85;100.00;95673.69;5018627;28;20240;-69
2023/02/25 07:03:49;;;;;;;5.17;3.47;;;;;;;0.78;100.00;95675.28;5062396;28;20513;-70
2023/02/25 07:06:18;;;;;;;5.07;3.67;;;;;;;0.82;100.00;95674.00;5062196;28;20202;-69
2023/02/25 07:08:45;;;;;;;5.63;3.27;;;;;;;0.77;100.00;95668.44;5041088;28;20844;-70
2023/02/25 07:11:21;;;;;;;5.37;3.53;;;;;;;0.80;100.00;95691.59;5066551;28;20690;-68
2023/02/25 07:13:49;;;;;;;3.10;2.87;;;;;;;0.85;100.00;95697.94;5058132;28;20435;-68
2023/02/25 07:16:17;;;;;;;4.07;3.20;;;;;;;0.82;100.00;95700.88;5065966;28;20209;-70
2023/02/25 07:18:47;;;;;;;4.03;3.50;;;;;;;0.88;100.00;95696.81;5018247;28;20422;-69
2023/02/25 07:21:15;;;;;;;6.43;4.13;;;;;;;0.86;100.00;95717.03;5062890;28;20203;-70
2023/02/25 07:23:42;;;;;;;5.33;3.70;;;;;;;0.85;100.00;95708.38;5036682;28;20230;-69
2023/02/25 07:26:12;;;;;;;3.87;3.30;;;;;;;0.86;100.00;95704.78;5060422;28;20202;-70
2023/02/25 07:28:40;;;;;;;11.43;3.70;;;;;;;0.86;100.00;95704.00;5060253;28;20202;-68
2023/02/25 07:31:11;;;;;;;3.13;2.87;;;;;;;0.90;100.00;95707.06;5067148;28;20698;-69
2023/02/25 07:33:40;;;;;;;5.83;3.37;;;;;;;0.86;100.00;95699.56;5013879;28;20225;-68
2023/02/25 07:36:11;;;;;;;4.80;3.60;;;;;;;0.91;100.00;95696.50;5068795;28;20248;-68
2023/02/25 07:38:39;;;;;;;3.50;3.20;;;;;;;0.93;100.00;95697.16;5038229;28;20290;-69
2023/02/25 07:41:07;;;;;;;5.27;3.30;;;;;;;0.92;100.00;95699.91;5066096;28;20198;-70
2023/02/25 07:43:35;;;;;;;3.50;3.20;;;;;;;0.96;100.00;95701.25;5062743;28;20265;-68
2023/02/25 07:46:03;;;;;;;8.43;3.43;;;;;;;0.89;100.00;95695.84;5059944;28;20199;-70
2023/02/25 07:48:31;;;;;;;3.00;2.80;;;;;;;0.89;100.00;95701.06;5020562;28;20213;-68
2023/02/25 07:51:04;;;;;;;5.97;4.07;;;;;;;0.90;100.00;95696.63;5058646;28;20203;-70
2023/02/25 07:53:34;;;;;;;4.10;3.20;;;;;;;0.85;100.00;95703.16;5044616;28;20232;-68
2023/02/25 07:56:01;;;;;;;5.60;3.70;;;;;;;0.96;100.00;95694.22;5065729;28;20540;-69
2023/02/25 07:58:29;;;;;;;5.20;3.80;;;;;;;0.99;100.00;95687.88;5059327;28;20210;-68
2023/02/25 08:00:57;;;;;;;4.07;3.37;;;;;;;1.08;100.00;95686.06;5063308;28;20206;-68
2023/02/25 08:03:25;;;;;;;5.30;3.07;;;;;;;1.24;100.00;95691.31;5061823;28;20344;-68
2023/02/25 08:05:53;;;;;;;4.60;3.97;;;;;;;1.23;100.00;95686.25;5025882;28;20237;-69
2023/02/25 08:08:21;;;;;;;4.07;3.77;;;;;;;1.35;100.00;95695.41;5041155;28;20210;-70
2023/02/25 08:10:50;;;;;;;9.97;3.77;;;;;;;1.41;100.00;95699.16;5060351;28;20340;-70
2023/02/25 08:13:18;;;;;;;4.20;3.80;;;;;;;1.40;100.00;95689.69;5068447;28;20230;-70
2023/02/25 08:15:46;;;;;;;3.93;3.33;;;;;;;1.46;100.00;95691.63;5056507;28;21212;-71
2023/02/25 08:18:13;;;;;;;3.80;3.30;;;;;;;1.58;100.00;95695.56;5064687;28;20301;-69
2023/02/25 08:20:46;;;;;;;6.77;3.70;;;;;;;1.52;100.00;95698.84;5014546;28;20305;-68
2023/02/25 08:23:13;;;;;;;3.67;3.37;;;;;;;1.56;100.00;95696.69;5061677;28;20209;-69
2023/02/25 08:25:41;;;;;;;3.60;3.20;;;;;;;1.63;99.55;95689.84;5037079;28;20213;-68
2023/02/25 08:28:10;;;;;;;5.73;3.67;;;;;;;1.77;98.37;95703.22;5066762;28;20495;-70
2023/02/25 08:30:37;;;;;;;5.47;3.93;;;;;;;1.80;96.93;95698.47;5058464;28;20393;-68
2023/02/25 08:33:05;;;;;;;5.27;3.00;;;;;;;2.01;97.21;95705.78;5068078;28;20369;-68
2023/02/25 08:35:32;;;;;;;4.77;3.13;;;;;;;2.05;95.76;95705.44;5020861;28;20432;-68
2023/02/25 08:38:00;;;;;;;5.97;3.10;;;;;;;2.08;94.53;95713.78;5058857;28;20203;-70
2023/02/25 08:40:28;;;;;;;5.20;3.30;;;;;;;1.97;94.68;95709.72;5047093;28;20209;-68
2023/02/25 08:42:55;;;;;;;4.90;3.70;;;;;;;1.90;95.39;95719.19;5064007;28;20199;-68
2023/02/25 08:45:24;;;;;;;3.20;2.90;;;;;;;1.76;94.89;95717.25;5069239;28;20201;-70
2023/02/25 08:47:52;;;;;;;4.80;3.50;;;;;;;1.85;95.62;95716.28;5063354;28;20708;-70
2023/02/25 08:50:22;;;;;;;3.17;2.83;;;;;;;1.85;95.50;95714.47;5021926;28;20233;-69
2023/02/25 08:52:50;;;;;;;5.40;3.20;;;;;;;2.06;94.99;95720.13;5054879;28;20202;-70
2023/02/25 08:55:18;;;;;;;4.70;3.20;;;;;;;1.94;93.53;95719.69;5041057;28;20222;-70
2023/02/25 08:57:45;;;;;;;3.20;2.90;;;;;;;1.99;93.53;95715.59;5059678;28;20275;-68
2023/02/25 09:00:14;;;;;;;4.83;3.33;;;;;;;1.99;92.76;95715.59;5065228;28;20205;-70
2023/02/25 09:02:43;;;;;;;5.07;3.20;;;;;;;2.08;92.30;95707.72;5058552;28;20222;-68
2023/02/25 09:05:11;;;;;;;3.33;3.10;;;;;;;1.92;91.59;95709.41;5065006;28;20222;-70
2023/02/25 09:07:39;;;;;;;3.73;3.00;;;;;;;1.96;91.20;95708.09;5012533;28;20781;-68
2023/02/25 09:10:08;;;;;;;3.90;3.30;;;;;;;2.00;91.63;95704.16;5067285;28;20207;-71
2023/02/25 09:12:41;;;;;;;3.30;3.10;;;;;;;2.04;90.71;95696.81;5043415;28;21068;-68
2023/02/25 09:15:10;;;;;;;4.97;3.00;;;;;;;2.35;90.44;95698.69;5070562;28;20223;-70
2023/02/25 09:17:37;;;;;;;4.50;3.43;;;;;;;2.14;89.77;95699.25;5063834;28;20214;-68
2023/02/25 09:20:10;;;;;;;5.30;3.97;;;;;;;2.03;88.76;95703.00;5071199;28;20466;-70
2023/02/25 09:22:38;;;;;;;4.93;3.00;;;;;;;2.13;89.38;95700.22;5013474;28;20225;-69
2023/02/25 09:25:07;;;;;;;3.80;3.43;;;;;;;2.37;89.53;95701.09;5064099;28;20215;-70
2023/02/25 09:27:35;;;;;;;4.20;3.20;;;;;;;2.59;89.22;95708.22;5044619;28;20206;-68
2023/02/25 09:30:03;;;;;;;5.00;3.47;;;;;;;2.27;88.38;95712.59;5061730;28;20286;-68
2023/02/25 09:32:31;;;;;;;4.17;3.00;;;;;;;2.39;88.77;95704.38;5063638;28;20194;-68
2023/02/25 09:35:05;;;;;;;4.10;2.97;;;;;;;2.51;88.34;95715.28;5059315;28;20222;-70
2023/02/25 09:37:34;;;;;;;5.83;3.77;;;;;;;2.52;87.82;95715.13;5015724;28;20203;-69
2023/02/25 09:40:02;;;;;;;6.70;3.33;;;;;;;2.49;87.65;95710.22;5063145;28;20806;-70
2023/02/25 09:42:43;;;;;;;7.60;3.83;;;;;;;2.54;86.75;95714.94;5043212;28;20202;-68
2023/02/25 09:45:16;;;;;;;5.33;3.30;;;;;;;2.40;86.54;95706.00;5065014;28;20232;-70
2023/02/25 09:47:48;;;;;;;7.53;4.00;;;;;;;2.55;86.49;95706.09;5064738;28;20206;-68
2023/02/25 09:50:20;;;;;;;3.57;3.27;;;;;;;2.72;86.36;95720.75;5070231;28;20251;-71
2023/02/25 09:52:54;;;;;;;3.00;2.77;;;;;;;2.66;84.29;95720.63;5017863;28;20233;-68
2023/02/25 09:55:24;;;;;;;4.57;3.13;;;;;;;2.66;84.89;95724.06;5070912;28;20225;-71
2023/02/25 09:57:56;;;;;;;3.03;2.80;;;;;;;2.66;84.52;95731.06;5039226;28;20786;-70
2023/02/25 10:00:23;;;;;;;3.37;3.07;;;;;;;3.03;84.89;95729.59;5072385;28;20214;-70
2023/02/25 10:02:55;;;;;;;3.47;2.80;;;;;;;2.99;83.37;95733.53;5035491;28;20833;-71
2023/02/25 10:05:25;;;;;;;3.00;2.77;;;;;;;2.96;83.99;95723.41;5064002;28;20202;-71
2023/02/25 10:08:00;;;;;;;5.47;2.90;;;;;;;2.79;83.37;95731.34;5014436;28;21224;-68
2023/02/25 10:10:35;;;;;;;6.30;3.23;;;;;;;2.83;83.10;95726.59;5063491;28;20198;-68
2023/02/25 10:13:11;;;;;;;3.87;3.00;;;;;;;2.80;82.87;95724.31;5063387;28;20202;-71
2023/02/25 10:15:48;;;;;;;4.77;2.90;;;;;;;2.67;83.05;95722.25;5064425;28;20511;-69
2023/02/25 10:18:33;;;;;;;3.60;3.07;;;;;;;3.02;82.98;95730.56;5039944;28;20203;-71
2023/02/25 10:21:20;;;;;;;3.43;3.13;;;;;;;3.04;81.52;95720.75;5063803;28;20877;-70
2023/02/25 10:24:01;;;;;;;6.10;3.33;;;;;;;2.93;81.13;95736.84;5018681;28;21176;-68
2023/02/25 10:26:31;;;;;;;6.63;3.03;;;;;;;2.85;80.85;95714.97;5068397;28;20210;-69
2023/02/25 10:29:00;;;;;;;3.23;2.63;;;;;;;3.10;81.52;95720.06;5063888;28;20844;-70
2023/02/25 10:31:30;;;;;;;6.00;3.30;;;;;;;3.16;80.69;95711.50;5066426;28;20202;-69
2023/02/25 10:34:05;;;;;;;4.43;3.17;;;;;;;3.33;79.30;95717.44;5040419;28;20226;-68
2023/02/25 10:36:34;;;;;;;2.83;2.63;;;;;;;3.13;78.89;95716.28;5062761;28;20430;-69
2023/02/25 10:39:04;;;;;;;3.07;2.77;;;;;;;3.39;79.51;95717.72;5015576;28;21167;-70
2023/02/25 10:41:31;;;;;;;3.30;3.00;;;;;;;3.50;79.35;95706.88;5070457;28;20213;-68
2023/02/25 10:43:59;;;;;;;3.03;2.60;;;;;;;3.17;77.89;95714.94;5060944;28;20236;-70
2023/02/25 10:46:31;;;;;;;6.60;3.20;;;;;;;3.16;77.96;95727.22;5065356;28;20217;-69
2023/02/25 10:49:00;;;;;;;4.53;2.57;;;;;;;3.16;78.34;95715.94;5038169;28;20551;-68
2023/02/25 10:51:28;;;;;;;7.07;2.77;;;;;;;3.14;77.91;95710.06;5065920;28;20379;-69
2023/02/25 10:54:06;;;;;;;4.97;3.30;;;;;;;3.19;77.99;95719.00;5062060;28;20326;-70
2023/02/25 10:56:39;;;;;;;2.47;2.33;;;;;;;3.02;77.66;95709.63;5021956;28;20221;-68
2023/02/25 10:59:27;;;;;;;2.60;2.40;;;;;;;3.36;78.42;95708.44;5065466;28;20202;-69
2023/02/25 11:01:59;;;;;;;5.47;2.87;;;;;;;3.17;78.12;95705.28;5066230;28;20775;-70
2023/02/25 11:04:30;;;;;;;5.00;3.20;;;;;;;3.36;78.57;95705.81;5045313;28;20232;-69
2023/02/25 11:06:58;;;;;;;3.90;2.97;;;;;;;3.07;78.04;95702.09;5061766;28;20604;-70
2023/02/25 11:09:37;;;;;;;2.63;2.37;;;;;;;3.16;78.48;95706.28;5061439;28;20206;-69
2023/02/25 11:12:18;;;;;;;5.60;3.90;;;;;;;3.14;78.35;95700.41;5020447;28;20419;-70
2023/02/25 11:14:46;;;;;;;3.83;3.07;;;;;;;3.04;78.54;95686.72;5065385;28;20210;-69
2023/02/25 11:17:19;;;;;;;3.20;2.97;;;;;;;3.09;78.06;95684.41;5064189;28;20576;-69
2023/02/25 11:19:48;;;;;;;3.37;2.77;;;;;;;3.13;77.93;95690.91;5033981;28;20308;-69
2023/02/25 11:22:18;;;;;;;4.03;3.40;;;;;;;3.17;77.80;95696.63;5058835;28;20399;-68
2023/02/25 11:24:55;;;;;;;2.73;2.53;;;;;;;3.27;78.09;95683.31;5058830;28;20506;-68
2023/02/25 11:27:29;;;;;;;3.43;2.83;;;;;;;3.44;77.63;95674.34;5017233;28;20206;-68
2023/02/25 11:30:02;;;;;;;5.20;3.37;;;;;;;3.78;76.39;95697.63;5062509;28;20403;-71
2023/02/25 11:32:31;;;;;;;3.77;3.20;;;;;;;3.62;75.95;95679.25;5062667;28;20662;-70
2023/02/25 11:35:03;;;;;;;4.33;2.70;;;;;;;3.95;76.09;95690.44;5038452;28;20253;-71
2023/02/25 11:37:35;;;;;;;3.33;2.60;;;;;;;3.95;75.10;95670.25;5060185;28;20210;-70
2023/02/25 11:40:20;;;;;;;5.73;3.17;;;;;;;4.26;74.57;95671.09;5060812;28;20500;-72
2023/02/25 11:43:01;;;;;;;2.97;2.57;;;;;;;4.46;73.54;95677.41;5015562;28;20339;-70
2023/02/25 11:45:30;;;;;;;4.53;2.87;;;;;;;4.73;72.91;95669.88;5069370;28;20226;-70
2023/02/25 11:47:58;;;;;;;3.23;2.43;;;;;;;4.80;73.24;95659.44;5064750;28;20221;-73